Time;durP1;ratioP1;P1;durP2;ratioP2;P2;SDS_P1;SDS_P2;PMS_P1;PMS_P2;Temp;Humidity;BMP_temperature;BMP_pressure;BME280_temperature;BME280_humidity;BME280_pressure;Samples;Min_cycle;Max_cycle;Signal;HPM_P1;HPM_P2
2022/10/23 00:01:26;;;;;;;12.52;2.97;;;;;;;;;;4999805;28;20085;-63
2022/10/23 00:03:54;;;;;;;5.78;2.40;;;;;;;;;;5003908;28;20137;-63
2022/10/23 00:06:21;;;;;;;6.07;2.50;;;;;;;;;;5016953;28;20077;-63
2022/10/23 00:08:48;;;;;;;7.25;2.60;;;;;;;;;;5001273;28;20101;-63
2022/10/23 00:11:15;;;;;;;6.38;2.47;;;;;;;;;;5001886;28;20069;-63
2022/10/23 00:13:42;;;;;;;9.02;3.00;;;;;;;;;;4999730;28;20046;-63
2022/10/23 00:16:09;;;;;;;9.73;3.10;;;;;;;;;;5020943;28;20073;-63
2022/10/23 00:18:35;;;;;;;7.65;3.05;;;;;;;;;;4998821;28;20100;-63
2022/10/23 00:21:04;;;;;;;11.07;2.97;;;;;;;;;;5021142;28;20046;-63
2022/10/23 00:23:31;;;;;;;8.48;2.80;;;;;;;;;;4999020;28;20065;-63
2022/10/23 00:25:57;;;;;;;14.80;2.97;;;;;;;;;;5004761;28;20050;-63
2022/10/23 00:28:24;;;;;;;10.57;3.17;;;;;;;;;;5015229;28;20073;-63
2022/10/23 00:30:50;;;;;;;7.15;3.03;;;;;;;;;;5000888;28;20062;-63
2022/10/23 00:33:17;;;;;;;5.80;2.47;;;;;;;;;;4991674;28;20065;-63
2022/10/23 00:35:43;;;;;;;11.63;2.75;;;;;;;;;;5001487;28;20065;-63
2022/10/23 00:38:12;;;;;;;5.10;2.40;;;;;;;;;;4984959;28;20057;-63
2022/10/23 00:40:39;;;;;;;;;;;;;;;;;;5020503;28;20269;-63
2022/10/23 00:43:07;;;;;;;4.35;1.90;;;;;;;;;;5015702;28;19932;-63
2022/10/23 00:45:34;;;;;;;6.47;2.40;;;;;;;;;;5004371;28;20054;-63
2022/10/23 00:48:02;;;;;;;6.68;2.70;;;;;;;;;;4998929;28;20050;-63
2022/10/23 00:50:30;;;;;;;5.53;2.35;;;;;;;;;;5021006;28;20053;-63
2022/10/23 00:52:57;;;;;;;5.27;2.53;;;;;;;;;;5021176;28;20115;-63
2022/10/23 00:55:26;;;;;;;5.85;2.35;;;;;;;;;;4999231;28;20072;-63
2022/10/23 00:57:53;;;;;;;7.47;2.42;;;;;;;;;;5004060;28;20097;-63
2022/10/23 01:00:22;;;;;;;6.68;2.92;;;;;;;;;;4998659;28;20065;-63
2022/10/23 01:02:48;;;;;;;4.80;2.33;;;;;;;;;;5004665;28;20050;-63
2022/10/23 01:05:15;;;;;;;9.60;2.95;;;;;;;;;;4998289;28;20062;-63
2022/10/23 01:07:46;;;;;;;6.82;2.70;;;;;;;;;;5004205;28;20057;-62
2022/10/23 01:10:15;;;;;;;5.72;2.17;;;;;;;;;;5014389;28;20068;-63
2022/10/23 01:12:50;;;;;;;4.40;1.95;;;;;;;;;;5020690;28;20103;-63
2022/10/23 01:15:19;;;;;;;8.23;2.70;;;;;;;;;;4998108;28;20069;-63
2022/10/23 01:17:48;;;;;;;5.38;2.38;;;;;;;;;;5020540;28;20196;-63
2022/10/23 01:20:21;;;;;;;4.90;2.20;;;;;;;;;;5014782;28;20050;-63
2022/10/23 01:23:04;;;;;;;5.70;1.95;;;;;;;;;;5019673;28;20129;-63
2022/10/23 01:25:40;;;;;;;7.68;2.53;;;;;;;;;;5015260;28;20053;-63
2022/10/23 01:28:10;;;;;;;9.07;2.55;;;;;;;;;;5019736;28;20072;-63
2022/10/23 01:30:40;;;;;;;7.38;2.22;;;;;;;;;;4990647;28;20061;-63
2022/10/23 01:33:09;;;;;;;4.75;1.95;;;;;;;;;;5020938;28;20081;-64
2022/10/23 01:35:37;;;;;;;6.30;1.95;;;;;;;;;;4998700;28;20512;-63
2022/10/23 01:38:06;;;;;;;4.13;1.83;;;;;;;;;;5019812;28;20050;-63
2022/10/23 01:40:34;;;;;;;6.47;2.38;;;;;;;;;;4997037;28;20109;-63
2022/10/23 01:43:03;;;;;;;7.47;2.53;;;;;;;;;;5020589;28;20054;-63
2022/10/23 01:45:36;;;;;;;8.23;2.97;;;;;;;;;;4999018;28;20141;-63
2022/10/23 01:48:03;;;;;;;5.97;2.20;;;;;;;;;;5004046;28;20057;-63
2022/10/23 01:50:31;;;;;;;5.63;2.50;;;;;;;;;;5015135;28;20046;-63
2022/10/23 01:52:58;;;;;;;4.97;1.90;;;;;;;;;;5004108;28;20069;-63
2022/10/23 01:55:25;;;;;;;5.63;2.33;;;;;;;;;;5020580;28;20054;-63
2022/10/23 01:57:53;;;;;;;10.57;2.00;;;;;;;;;;5014449;28;20054;-63
2022/10/23 02:00:20;;;;;;;6.50;2.70;;;;;;;;;;5019104;28;20058;-63
2022/10/23 02:02:50;;;;;;;5.88;2.10;;;;;;;;;;5014303;28;20358;-63
2022/10/23 02:05:17;;;;;;;6.80;2.20;;;;;;;;;;5020110;28;20068;-63
2022/10/23 02:07:46;;;;;;;12.17;2.63;;;;;;;;;;5014466;28;20093;-63
2022/10/23 02:10:13;;;;;;;6.90;2.08;;;;;;;;;;5003083;28;20046;-63
2022/10/23 02:12:43;;;;;;;5.45;1.92;;;;;;;;;;4997819;28;20049;-63
2022/10/23 02:15:13;;;;;;;4.85;2.00;;;;;;;;;;5020463;28;20111;-63
2022/10/23 02:17:43;;;;;;;7.57;2.22;;;;;;;;;;4997781;28;20050;-63
2022/10/23 02:20:17;;;;;;;5.57;2.20;;;;;;;;;;5019311;28;20073;-63
2022/10/23 02:22:47;;;;;;;4.70;2.00;;;;;;;;;;4998299;28;20057;-63
2022/10/23 02:25:15;;;;;;;5.65;1.98;;;;;;;;;;5003914;28;20060;-63
2022/10/23 02:27:44;;;;;;;4.45;1.70;;;;;;;;;;4997190;28;20065;-63
2022/10/23 02:30:14;;;;;;;3.67;1.80;;;;;;;;;;5018811;28;20054;-63
2022/10/23 02:32:41;;;;;;;5.00;2.10;;;;;;;;;;5002050;28;20050;-63
2022/10/23 02:35:09;;;;;;;3.33;1.60;;;;;;;;;;5001242;28;20153;-63
2022/10/23 02:37:37;;;;;;;6.40;2.38;;;;;;;;;;5001870;28;20451;-63
2022/10/23 02:40:03;;;;;;;8.05;2.28;;;;;;;;;;5006809;28;20061;-63
2022/10/23 02:42:32;;;;;;;4.25;1.90;;;;;;;;;;5018014;28;20053;-63
2022/10/23 02:45:03;;;;;;;4.68;2.17;;;;;;;;;;5006449;28;20054;-63
2022/10/23 02:47:45;;;;;;;5.70;2.35;;;;;;;;;;5021800;28;20062;-63
2022/10/23 02:53:26;;;;;;;5.20;1.95;;;;;;;;;;5029921;22;20133;-63
2022/10/23 02:55:58;;;;;;;5.97;2.00;;;;;;;;;;5042535;28;20052;-63
2022/10/23 02:58:28;;;;;;;5.97;2.15;;;;;;;;;;5030034;28;20165;-63
2022/10/23 03:00:56;;;;;;;3.15;1.65;;;;;;;;;;5045530;28;20094;-63
2022/10/23 03:03:26;;;;;;;4.45;1.80;;;;;;;;;;5039447;28;20114;-63
2022/10/23 03:05:53;;;;;;;9.57;2.30;;;;;;;;;;5045806;28;20068;-63
2022/10/23 03:08:20;;;;;;;7.05;2.50;;;;;;;;;;5043786;28;20114;-63
2022/10/23 03:10:48;;;;;;;3.92;1.80;;;;;;;;;;5025518;28;20102;-63
2022/10/23 03:13:14;;;;;;;5.65;2.42;;;;;;;;;;5037237;28;20045;-63
2022/10/23 03:15:41;;;;;;;6.78;2.90;;;;;;;;;;5022866;28;20079;-63
2022/10/23 03:18:07;;;;;;;8.20;2.60;;;;;;;;;;5041963;28;20089;-63
2022/10/23 03:20:34;;;;;;;10.10;2.92;;;;;;;;;;5035892;28;20052;-63
2022/10/23 03:23:01;;;;;;;6.43;2.20;;;;;;;;;;5029489;28;20068;-63
2022/10/23 03:25:28;;;;;;;5.53;1.95;;;;;;;;;;5039359;28;20076;-63
2022/10/23 03:27:56;;;;;;;6.57;2.47;;;;;;;;;;5030400;28;20060;-63
2022/10/23 03:30:22;;;;;;;5.82;2.22;;;;;;;;;;5036799;28;20049;-63
2022/10/23 03:32:49;;;;;;;5.35;1.83;;;;;;;;;;5025198;28;20110;-63
2022/10/23 03:35:16;;;;;;;7.10;2.35;;;;;;;;;;5037400;28;20053;-63
2022/10/23 03:37:42;;;;;;;7.57;2.40;;;;;;;;;;5034359;28;20064;-63
2022/10/23 03:40:10;;;;;;;5.55;2.15;;;;;;;;;;5039777;28;20048;-64
2022/10/23 03:42:37;;;;;;;3.80;1.70;;;;;;;;;;5042287;28;20055;-63
2022/10/23 03:45:06;;;;;;;6.65;1.77;;;;;;;;;;5027409;28;20057;-63
2022/10/23 03:47:34;;;;;;;7.05;1.90;;;;;;;;;;5044019;28;20066;-63
2022/10/23 03:50:01;;;;;;;5.75;2.30;;;;;;;;;;5026307;28;20053;-63
2022/10/23 03:52:27;;;;;;;3.47;1.60;;;;;;;;;;5046987;28;20075;-63
2022/10/23 03:54:54;;;;;;;5.15;2.05;;;;;;;;;;5031391;28;20076;-63
2022/10/23 03:57:23;;;;;;;5.68;2.22;;;;;;;;;;5037893;28;20057;-63
2022/10/23 03:59:49;;;;;;;5.18;1.92;;;;;;;;;;5037249;28;20059;-63
2022/10/23 04:02:17;;;;;;;5.50;2.08;;;;;;;;;;5041950;28;20057;-63
2022/10/23 04:04:44;;;;;;;4.88;1.95;;;;;;;;;;5048870;28;20137;-63
2022/10/23 04:07:12;;;;;;;5.72;1.92;;;;;;;;;;5038308;28;20106;-63
2022/10/23 04:09:38;;;;;;;4.32;1.80;;;;;;;;;;5015243;28;20057;-63
2022/10/23 04:12:05;;;;;;;5.72;1.90;;;;;;;;;;5029340;28;20044;-63
2022/10/23 04:14:32;;;;;;;6.75;2.28;;;;;;;;;;5048820;28;20106;-64
2022/10/23 04:16:58;;;;;;;7.47;2.75;;;;;;;;;;5041614;28;20052;-64
2022/10/23 04:19:26;;;;;;;6.22;1.73;;;;;;;;;;5047820;28;20144;-64
2022/10/23 04:21:53;;;;;;;4.68;1.73;;;;;;;;;;5042476;28;20129;-63
2022/10/23 04:24:19;;;;;;;7.07;1.90;;;;;;;;;;5046705;28;20049;-63
2022/10/23 04:26:46;;;;;;;7.55;3.17;;;;;;;;;;5042570;28;20063;-63
2022/10/23 04:29:14;;;;;;;6.97;2.65;;;;;;;;;;5047468;28;20055;-63
2022/10/23 04:31:40;;;;;;;5.83;2.80;;;;;;;;;;5048161;28;20056;-63
2022/10/23 04:34:07;;;;;;;6.45;2.45;;;;;;;;;;5039007;28;20322;-63
2022/10/23 04:36:35;;;;;;;5.15;2.28;;;;;;;;;;5027764;28;20056;-63
2022/10/23 04:39:02;;;;;;;4.78;2.00;;;;;;;;;;5057782;28;20083;-63
2022/10/23 04:41:28;;;;;;;5.22;1.90;;;;;;;;;;5047849;28;20052;-63
2022/10/23 04:43:54;;;;;;;6.63;2.28;;;;;;;;;;5037726;28;20102;-63
2022/10/23 04:46:22;;;;;;;8.60;2.55;;;;;;;;;;5027380;28;20063;-63
2022/10/23 04:48:48;;;;;;;4.40;2.28;;;;;;;;;;5029007;28;20048;-63
2022/10/23 04:51:15;;;;;;;6.57;3.00;;;;;;;;;;5037568;28;20045;-63
2022/10/23 04:53:42;;;;;;;5.05;2.10;;;;;;;;;;5031837;28;20060;-63
2022/10/23 04:56:13;;;;;;;5.23;2.10;;;;;;;;;;5027618;28;20049;-63
2022/10/23 04:58:39;;;;;;;3.70;1.75;;;;;;;;;;5043283;28;20311;-63
2022/10/23 05:01:09;;;;;;;5.68;2.28;;;;;;;;;;5063744;28;20064;-63
2022/10/23 05:03:36;;;;;;;6.85;2.42;;;;;;;;;;5056334;28;20048;-63
2022/10/23 05:06:03;;;;;;;4.70;2.20;;;;;;;;;;5064431;28;20048;-63
2022/10/23 05:08:30;;;;;;;5.97;2.22;;;;;;;;;;5057720;28;20060;-63
2022/10/23 05:10:58;;;;;;;5.82;2.03;;;;;;;;;;5064093;28;20068;-63
2022/10/23 05:13:24;;;;;;;9.10;2.78;;;;;;;;;;5047052;28;20052;-63
2022/10/23 05:15:52;;;;;;;9.65;3.53;;;;;;;;;;5058218;28;20070;-63
2022/10/23 05:18:20;;;;;;;6.95;2.42;;;;;;;;;;5063563;28;20048;-63
2022/10/23 05:20:48;;;;;;;5.65;2.28;;;;;;;;;;5060191;28;20226;-63
2022/10/23 05:23:16;;;;;;;4.90;1.77;;;;;;;;;;5064311;28;20056;-63
2022/10/23 05:25:43;;;;;;;5.97;2.13;;;;;;;;;;5056552;28;20059;-63
2022/10/23 05:28:10;;;;;;;6.40;2.30;;;;;;;;;;5066641;28;20056;-63
2022/10/23 05:30:38;;;;;;;6.50;2.17;;;;;;;;;;5064943;28;20063;-63
2022/10/23 05:33:05;;;;;;;5.68;2.42;;;;;;;;;;5064341;28;20167;-63
2022/10/23 05:35:31;;;;;;;6.65;2.50;;;;;;;;;;5051140;28;20049;-63
2022/10/23 05:37:59;;;;;;;6.07;2.40;;;;;;;;;;5046977;28;20066;-63
2022/10/23 05:40:26;;;;;;;4.85;1.95;;;;;;;;;;5042068;28;20044;-63
2022/10/23 05:42:52;;;;;;;4.45;2.15;;;;;;;;;;5047602;28;20114;-63
2022/10/23 05:45:21;;;;;;;7.43;2.65;;;;;;;;;;5046456;28;20121;-63
2022/10/23 05:47:48;;;;;;;7.32;2.47;;;;;;;;;;5083717;28;20048;-63
2022/10/23 05:50:14;;;;;;;3.83;2.00;;;;;;;;;;5059736;28;20122;-64
2022/10/23 05:52:41;;;;;;;4.90;1.95;;;;;;;;;;5062903;28;20113;-63
2022/10/23 05:55:08;;;;;;;5.63;1.95;;;;;;;;;;5058490;28;20118;-63
2022/10/23 05:57:37;;;;;;;5.27;2.27;;;;;;;;;;5022418;28;20124;-63
2022/10/23 06:00:04;;;;;;;8.13;3.20;;;;;;;;;;5007261;28;20085;-64
2022/10/23 06:02:32;;;;;;;9.70;2.50;;;;;;;;;;5002035;28;20116;-63
2022/10/23 06:04:58;;;;;;;4.03;2.05;;;;;;;;;;5006998;28;20156;-63
2022/10/23 06:07:26;;;;;;;4.78;2.15;;;;;;;;;;5001691;28;20054;-63
2022/10/23 06:09:53;;;;;;;8.98;3.03;;;;;;;;;;5024670;28;20113;-63
2022/10/23 06:12:20;;;;;;;6.65;2.67;;;;;;;;;;5030879;28;20135;-63
2022/10/23 06:14:46;;;;;;;5.68;2.10;;;;;;;;;;5067271;28;20063;-64
2022/10/23 06:17:13;;;;;;;6.97;3.00;;;;;;;;;;5050522;28;20060;-63
2022/10/23 06:19:41;;;;;;;4.22;1.80;;;;;;;;;;5030787;28;20106;-64
2022/10/23 06:22:07;;;;;;;4.90;2.28;;;;;;;;;;5017103;28;20049;-64
2022/10/23 06:24:34;;;;;;;4.97;2.10;;;;;;;;;;5020502;28;20053;-64
2022/10/23 06:27:04;;;;;;;5.97;2.70;;;;;;;;;;5015071;28;20058;-63
2022/10/23 06:29:30;;;;;;;9.00;2.50;;;;;;;;;;5022161;28;20138;-63
2022/10/23 06:31:57;;;;;;;5.57;2.25;;;;;;;;;;5012294;28;20136;-63
2022/10/23 06:34:23;;;;;;;5.82;2.30;;;;;;;;;;5017928;28;20146;-63
2022/10/23 06:36:51;;;;;;;8.88;2.85;;;;;;;;;;5031952;28;20053;-63
2022/10/23 06:39:20;;;;;;;5.57;2.25;;;;;;;;;;5024527;28;20077;-64
2022/10/23 06:41:46;;;;;;;7.75;2.67;;;;;;;;;;5027101;28;20159;-64
2022/10/23 06:44:14;;;;;;;9.55;2.75;;;;;;;;;;5014207;28;20143;-63
2022/10/23 06:46:41;;;;;;;5.43;2.30;;;;;;;;;;5022326;28;20060;-63
2022/10/23 06:49:07;;;;;;;4.22;1.98;;;;;;;;;;5015192;28;20045;-63
2022/10/23 06:51:34;;;;;;;5.20;2.30;;;;;;;;;;5019627;28;20123;-63
2022/10/23 06:54:02;;;;;;;6.80;2.70;;;;;;;;;;5028217;28;20068;-63
2022/10/23 06:56:29;;;;;;;9.90;2.58;;;;;;;;;;5047406;28;20175;-64
2022/10/23 06:58:56;;;;;;;7.03;2.20;;;;;;;;;;5032764;28;20072;-64
2022/10/23 07:01:22;;;;;;;8.65;2.33;;;;;;;;;;5042641;28;20052;-63
2022/10/23 07:03:49;;;;;;;9.02;2.13;;;;;;;;;;5037336;28;20110;-63
2022/10/23 07:06:16;;;;;;;7.20;2.22;;;;;;;;;;5034068;28;20060;-63
2022/10/23 07:08:42;;;;;;;5.22;2.38;;;;;;;;;;5039378;28;20052;-63
2022/10/23 07:11:11;;;;;;;4.65;2.03;;;;;;;;;;5049128;28;20047;-63
2022/10/23 07:13:38;;;;;;;4.82;2.08;;;;;;;;;;5034592;28;20094;-64
2022/10/23 07:16:12;;;;;;;5.10;1.98;;;;;;;;;;5040074;28;20068;-63
2022/10/23 07:18:38;;;;;;;4.60;2.28;;;;;;;;;;5036911;28;20061;-63
2022/10/23 07:21:05;;;;;;;6.30;2.55;;;;;;;;;;5040205;28;20056;-63
2022/10/23 07:23:32;;;;;;;7.05;2.28;;;;;;;;;;5040372;28;20052;-62
2022/10/23 07:26:02;;;;;;;5.22;2.10;;;;;;;;;;5043354;28;20056;-63
2022/10/23 07:28:30;;;;;;;7.25;2.58;;;;;;;;;;5043935;28;20200;-63
2022/10/23 07:30:57;;;;;;;6.22;1.83;;;;;;;;;;5039225;28;20045;-63
2022/10/23 07:33:23;;;;;;;6.00;2.08;;;;;;;;;;5041841;28;20087;-63
2022/10/23 07:35:50;;;;;;;7.65;2.10;;;;;;;;;;5040005;28;20071;-63
2022/10/23 07:38:17;;;;;;;10.52;2.40;;;;;;;;;;5044739;28;20113;-62
2022/10/23 07:40:44;;;;;;;9.55;2.65;;;;;;;;;;5040160;28;20049;-63
2022/10/23 07:43:11;;;;;;;4.88;2.05;;;;;;;;;;5046221;28;20052;-63
2022/10/23 07:45:39;;;;;;;6.22;2.60;;;;;;;;;;5036935;28;20053;-63
2022/10/23 07:48:05;;;;;;;9.38;2.60;;;;;;;;;;5040228;28;20063;-63
2022/10/23 07:50:32;;;;;;;13.52;2.03;;;;;;;;;;5040096;28;20102;-63
2022/10/23 07:52:58;;;;;;;5.53;2.05;;;;;;;;;;5040542;28;20056;-62
2022/10/23 07:55:27;;;;;;;5.80;2.13;;;;;;;;;;5040012;28;20041;-62
2022/10/23 07:57:54;;;;;;;5.22;2.30;;;;;;;;;;5039912;28;20058;-63
2022/10/23 08:00:21;;;;;;;5.97;2.00;;;;;;;;;;5032907;28;20082;-64
2022/10/23 08:02:49;;;;;;;5.55;2.10;;;;;;;;;;5047720;28;20048;-63
2022/10/23 08:05:19;;;;;;;5.30;2.20;;;;;;;;;;5036471;28;20129;-63
2022/10/23 08:07:45;;;;;;;5.90;2.25;;;;;;;;;;5035836;28;20056;-62
2022/10/23 08:10:12;;;;;;;4.50;2.17;;;;;;;;;;5036840;28;20056;-62
2022/10/23 08:12:38;;;;;;;8.90;2.38;;;;;;;;;;5040718;28;20080;-62
2022/10/23 08:15:05;;;;;;;7.03;2.38;;;;;;;;;;5042463;28;20052;-62
2022/10/23 08:17:32;;;;;;;6.75;2.28;;;;;;;;;;5040781;28;20056;-62
2022/10/23 08:20:00;;;;;;;9.18;2.08;;;;;;;;;;5042448;28;20057;-65
2022/10/23 08:22:26;;;;;;;9.02;2.28;;;;;;;;;;5039203;28;20053;-62
2022/10/23 08:24:53;;;;;;;6.85;2.40;;;;;;;;;;5039880;28;20060;-63
2022/10/23 08:27:19;;;;;;;4.95;1.80;;;;;;;;;;5034738;28;20048;-62
2022/10/23 08:29:46;;;;;;;5.80;2.35;;;;;;;;;;5038556;28;20057;-63
2022/10/23 08:32:12;;;;;;;3.83;1.83;;;;;;;;;;5040477;28;20057;-63
2022/10/23 08:34:41;;;;;;;5.15;2.05;;;;;;;;;;5047802;28;20052;-62
2022/10/23 08:37:08;;;;;;;;;;;;;;;;;;5043211;28;20083;-62
2022/10/23 08:39:36;;;;;;;6.00;2.05;;;;;;;;;;5047775;28;19958;-62
2022/10/23 08:42:02;;;;;;;6.22;2.33;;;;;;;;;;5042319;28;20048;-62
2022/10/23 08:44:31;;;;;;;6.50;2.50;;;;;;;;;;5048374;28;20067;-62
2022/10/23 08:47:02;;;;;;;5.75;2.10;;;;;;;;;;5043864;28;20052;-63
2022/10/23 08:49:34;;;;;;;9.13;2.28;;;;;;;;;;5048502;28;20048;-62
2022/10/23 08:52:05;;;;;;;9.93;2.30;;;;;;;;;;5043860;28;20056;-62
2022/10/23 08:54:36;;;;;;;6.68;2.05;;;;;;;;;;5028358;28;20084;-62
2022/10/23 08:57:09;;;;;;;6.95;2.00;;;;;;;;;;5028056;28;20110;-63
2022/10/23 08:59:39;;;;;;;4.47;2.03;;;;;;;;;;5045658;28;20159;-62
2022/10/23 09:02:10;;;;;;;5.20;2.25;;;;;;;;;;5048778;28;20056;-62
2022/10/23 09:04:37;;;;;;;4.90;2.05;;;;;;;;;;5042724;28;20056;-63
2022/10/23 09:07:07;;;;;;;5.38;2.20;;;;;;;;;;5047170;28;20051;-62
2022/10/23 09:09:40;;;;;;;7.13;2.13;;;;;;;;;;5059976;28;20134;-62
2022/10/23 09:12:11;;;;;;;9.52;2.20;;;;;;;;;;5047750;28;20052;-62
2022/10/23 09:14:47;;;;;;;8.02;2.05;;;;;;;;;;5059491;28;20048;-63
2022/10/23 09:17:18;;;;;;;3.40;1.75;;;;;;;;;;5047529;28;20115;-62
2022/10/23 09:19:45;;;;;;;5.85;2.35;;;;;;;;;;5040899;28;20044;-62
2022/10/23 09:22:12;;;;;;;6.18;2.40;;;;;;;;;;5047712;28;20048;-63
2022/10/23 09:24:42;;;;;;;7.43;2.20;;;;;;;;;;5042643;28;20167;-62
2022/10/23 09:27:14;;;;;;;6.30;1.98;;;;;;;;;;5047899;28;20059;-62
2022/10/23 09:29:46;;;;;;;4.60;1.95;;;;;;;;;;5039068;28;20098;-62
2022/10/23 09:32:13;;;;;;;4.32;1.80;;;;;;;;;;5044736;28;20056;-62
2022/10/23 09:34:49;;;;;;;10.27;2.30;;;;;;;;;;5042806;28;20060;-63
2022/10/23 09:37:21;;;;;;;6.25;2.03;;;;;;;;;;5047627;28;20060;-62
2022/10/23 09:39:48;;;;;;;9.27;2.50;;;;;;;;;;5058813;28;20129;-62
2022/10/23 09:42:21;;;;;;;6.35;2.00;;;;;;;;;;5048150;28;20052;-63
2022/10/23 09:44:49;;;;;;;4.30;1.77;;;;;;;;;;5040300;28;20052;-62
2022/10/23 09:47:19;;;;;;;5.80;2.00;;;;;;;;;;5047490;28;20143;-62
2022/10/23 09:49:47;;;;;;;4.85;2.05;;;;;;;;;;5062877;28;20059;-62
2022/10/23 09:52:22;;;;;;;7.10;2.30;;;;;;;;;;5051019;28;20063;-62
2022/10/23 09:54:50;;;;;;;11.90;2.30;;;;;;;;;;5046298;28;20106;-62
2022/10/23 09:57:23;;;;;;;6.33;2.20;;;;;;;;;;5051702;28;20058;-62
2022/10/23 09:59:50;;;;;;;6.78;1.92;;;;;;;;;;5027449;28;20387;-62
2022/10/23 10:02:20;;;;;;;6.00;2.17;;;;;;;;;;5051351;28;20068;-62
2022/10/23 10:04:47;;;;;;;4.43;1.77;;;;;;;;;;5051380;28;20312;-62
2022/10/23 10:07:19;;;;;;;4.97;1.60;;;;;;;;;;5045655;28;20077;-63
2022/10/23 10:09:46;;;;;;;5.00;2.00;;;;;;;;;;5048171;28;20072;-62
2022/10/23 10:12:30;;;;;;;6.55;1.83;;;;;;;;;;5044413;28;20056;-62
2022/10/23 10:15:09;;;;;;;5.20;1.85;;;;;;;;;;5050646;28;20052;-62
2022/10/23 10:17:39;;;;;;;6.57;1.98;;;;;;;;;;5026603;28;20057;-62
2022/10/23 10:20:20;;;;;;;10.32;2.00;;;;;;;;;;5031644;28;20055;-62
2022/10/23 10:22:50;;;;;;;4.13;1.70;;;;;;;;;;5063615;28;20088;-62
2022/10/23 10:25:20;;;;;;;3.75;1.75;;;;;;;;;;5051440;28;20160;-62
2022/10/23 10:27:52;;;;;;;3.83;1.63;;;;;;;;;;5043710;28;20063;-62
2022/10/23 10:30:21;;;;;;;4.85;1.90;;;;;;;;;;5050515;28;20086;-62
2022/10/23 10:32:47;;;;;;;;;;;;;;;;;;5045770;28;20118;-62
2022/10/23 10:35:19;;;;;;;4.15;1.50;;;;;;;;;;5051424;28;20039;-63
2022/10/23 10:37:51;;;;;;;4.68;1.88;;;;;;;;;;5044443;28;20048;-62
2022/10/23 10:40:22;;;;;;;4.75;1.40;;;;;;;;;;5047548;28;20060;-63
2022/10/23 10:42:57;;;;;;;6.72;1.80;;;;;;;;;;5044322;28;20123;-62
2022/10/23 10:45:31;;;;;;;7.85;2.00;;;;;;;;;;5050818;28;20052;-63
2022/10/23 10:48:07;;;;;;;5.43;1.63;;;;;;;;;;5050898;28;20139;-62
2022/10/23 10:50:39;;;;;;;4.32;1.65;;;;;;;;;;5047349;28;20057;-62
2022/10/23 10:53:09;;;;;;;7.43;1.70;;;;;;;;;;5044801;28;20099;-62
2022/10/23 10:55:38;;;;;;;5.47;1.85;;;;;;;;;;5049901;28;20078;-62
2022/10/23 10:58:10;;;;;;;5.35;1.80;;;;;;;;;;5041120;28;20118;-62
2022/10/23 11:00:38;;;;;;;5.10;1.73;;;;;;;;;;5030731;28;20071;-62
2022/10/23 11:03:07;;;;;;;4.65;1.80;;;;;;;;;;5050432;28;20052;-62
2022/10/23 11:05:37;;;;;;;6.78;1.67;;;;;;;;;;5050796;28;20066;-63
2022/10/23 11:08:05;;;;;;;3.47;1.80;;;;;;;;;;5044670;28;20050;-62
2022/10/23 11:10:33;;;;;;;5.70;1.63;;;;;;;;;;5050172;28;20052;-62
2022/10/23 11:13:00;;;;;;;5.40;1.83;;;;;;;;;;5044660;28;20044;-62
2022/10/23 11:15:28;;;;;;;5.82;1.77;;;;;;;;;;5050163;28;20048;-62
2022/10/23 11:17:58;;;;;;;4.82;1.70;;;;;;;;;;5044691;28;20056;-62
2022/10/23 11:20:34;;;;;;;6.00;1.70;;;;;;;;;;5050283;28;20102;-62
2022/10/23 11:23:06;;;;;;;4.50;1.73;;;;;;;;;;5043346;28;20109;-62
2022/10/23 11:25:47;;;;;;;5.25;2.03;;;;;;;;;;5049933;28;20045;-62
2022/10/23 11:28:19;;;;;;;7.22;1.88;;;;;;;;;;5040898;28;20061;-62
2022/10/23 11:30:56;;;;;;;3.72;1.60;;;;;;;;;;5049582;28;20065;-62
2022/10/23 11:33:41;;;;;;;3.70;1.52;;;;;;;;;;5044395;28;20048;-62
2022/10/23 11:36:14;;;;;;;3.75;1.55;;;;;;;;;;5066210;28;20052;-62
2022/10/23 11:38:41;;;;;;;4.68;1.85;;;;;;;;;;5060795;28;20064;-62
2022/10/23 11:41:17;;;;;;;5.22;1.70;;;;;;;;;;5049756;28;20059;-63
2022/10/23 11:43:48;;;;;;;3.58;1.40;;;;;;;;;;5045337;28;20079;-62
2022/10/23 11:46:15;;;;;;;6.70;2.33;;;;;;;;;;5046428;28;20095;-63
2022/10/23 11:48:43;;;;;;;6.55;1.85;;;;;;;;;;5029600;28;20077;-62
2022/10/23 11:51:28;;;;;;;6.70;2.05;;;;;;;;;;5043648;28;20057;-63
2022/10/23 11:54:05;;;;;;;5.78;1.90;;;;;;;;;;5045616;28;20084;-63
2022/10/23 11:56:33;;;;;;;5.95;1.80;;;;;;;;;;5041657;28;20053;-62
2022/10/23 11:59:18;;;;;;;4.05;1.60;;;;;;;;;;5058619;28;20160;-62
2022/10/23 12:01:45;;;;;;;5.05;1.50;;;;;;;;;;5043493;28;20056;-63
2022/10/23 12:04:18;;;;;;;10.23;1.80;;;;;;;;;;5062789;28;20045;-63
2022/10/23 12:06:47;;;;;;;5.65;1.70;;;;;;;;;;5039582;28;20047;-64
2022/10/23 12:09:26;;;;;;;4.93;1.50;;;;;;;;;;5045629;28;20114;-64
2022/10/23 12:12:04;;;;;;;12.93;1.60;;;;;;;;;;5040218;28;20060;-64
2022/10/23 12:14:32;;;;;;;4.93;1.75;;;;;;;;;;5045713;28;20064;-66
2022/10/23 12:17:01;;;;;;;4.50;1.65;;;;;;;;;;5036588;28;20158;-65
2022/10/23 12:19:29;;;;;;;3.30;1.38;;;;;;;;;;5025907;28;20115;-65
2022/10/23 12:21:59;;;;;;;6.32;1.80;;;;;;;;;;5035385;28;20053;-66
2022/10/23 12:24:38;;;;;;;3.65;1.30;;;;;;;;;;5044954;28;20056;-66
2022/10/23 12:27:14;;;;;;;6.53;1.83;;;;;;;;;;5036342;28;20045;-66
2022/10/23 12:29:48;;;;;;;4.10;1.65;;;;;;;;;;5037671;28;20063;-66
2022/10/23 12:32:28;;;;;;;5.65;2.30;;;;;;;;;;5039588;28;20045;-65
2022/10/23 12:35:08;;;;;;;4.43;1.67;;;;;;;;;;5045802;28;20056;-65
2022/10/23 12:37:45;;;;;;;3.30;1.50;;;;;;;;;;5015604;28;20053;-65
2022/10/23 12:40:12;;;;;;;4.57;1.67;;;;;;;;;;5025789;28;20065;-71
2022/10/23 12:42:38;;;;;;;4.43;1.52;;;;;;;;;;5030734;28;20057;-70
2022/10/23 12:45:13;;;;;;;7.00;1.40;;;;;;;;;;5058491;28;20053;-66
2022/10/23 12:47:40;;;;;;;7.13;1.70;;;;;;;;;;5047394;28;20053;-68
2022/10/23 12:50:15;;;;;;;4.28;1.60;;;;;;;;;;5062183;28;20051;-69
2022/10/23 12:52:50;;;;;;;6.97;1.60;;;;;;;;;;5059679;28;20063;-69
2022/10/23 12:55:17;;;;;;;3.20;1.45;;;;;;;;;;5048678;28;20055;-67
2022/10/23 12:57:44;;;;;;;5.55;1.70;;;;;;;;;;5037129;28;20072;-65
2022/10/23 13:00:15;;;;;;;2.90;1.35;;;;;;;;;;5028475;28;20060;-70
2022/10/23 13:02:42;;;;;;;4.60;1.58;;;;;;;;;;5027143;28;20060;-68
2022/10/23 13:05:12;;;;;;;5.22;1.70;;;;;;;;;;5048063;28;20052;-65
2022/10/23 13:07:43;;;;;;;5.53;1.60;;;;;;;;;;5046677;28;20084;-69
2022/10/23 13:10:13;;;;;;;3.60;1.40;;;;;;;;;;5056644;28;20060;-68
2022/10/23 13:12:41;;;;;;;3.00;1.35;;;;;;;;;;5042500;28;20059;-70
2022/10/23 13:15:15;;;;;;;4.07;1.67;;;;;;;;;;5048178;28;20059;-73
2022/10/23 13:17:43;;;;;;;6.82;1.40;;;;;;;;;;5040939;28;20106;-71
2022/10/23 13:20:10;;;;;;;8.00;1.63;;;;;;;;;;5047070;28;20056;-65
2022/10/23 13:22:40;;;;;;;4.90;1.40;;;;;;;;;;5058157;28;20053;-70
2022/10/23 13:25:21;;;;;;;4.75;1.55;;;;;;;;;;5044521;28;20075;-68
2022/10/23 13:27:48;;;;;;;3.13;1.20;;;;;;;;;;5039186;28;20141;-68
2022/10/23 13:30:27;;;;;;;3.95;1.45;;;;;;;;;;5047511;28;20056;-69
2022/10/23 13:32:54;;;;;;;3.03;1.40;;;;;;;;;;5043852;28;20178;-67
2022/10/23 13:35:22;;;;;;;5.97;1.30;;;;;;;;;;5044892;28;20083;-70
2022/10/23 13:37:49;;;;;;;7.73;1.73;;;;;;;;;;5047025;28;20048;-70
2022/10/23 13:40:24;;;;;;;3.67;1.40;;;;;;;;;;5039027;28;20128;-69
2022/10/23 13:42:54;;;;;;;3.92;1.40;;;;;;;;;;5061009;28;20052;-71
2022/10/23 13:45:24;;;;;;;6.05;1.58;;;;;;;;;;5058452;28;20192;-71
2022/10/23 13:47:51;;;;;;;3.85;1.25;;;;;;;;;;5047425;28;20064;-68
2022/10/23 13:50:18;;;;;;;4.93;1.40;;;;;;;;;;5041372;28;20083;-71
2022/10/23 13:52:46;;;;;;;3.40;1.40;;;;;;;;;;5047159;28;20048;-70
2022/10/23 13:55:18;;;;;;;3.30;1.42;;;;;;;;;;5042227;28;20052;-72
2022/10/23 13:57:46;;;;;;;5.22;1.50;;;;;;;;;;5061124;28;20049;-68
2022/10/23 14:00:13;;;;;;;5.20;1.80;;;;;;;;;;5067683;28;20044;-69
2022/10/23 14:02:41;;;;;;;4.53;1.63;;;;;;;;;;5047045;28;20045;-73
2022/10/23 14:05:09;;;;;;;6.53;1.67;;;;;;;;;;5041737;28;20037;-71
2022/10/23 14:07:36;;;;;;;4.03;1.52;;;;;;;;;;5049935;28;20094;-71
2022/10/23 14:10:03;;;;;;;5.40;1.42;;;;;;;;;;5041648;28;20048;-71
2022/10/23 14:12:29;;;;;;;4.28;1.70;;;;;;;;;;5047329;28;20060;-72
2022/10/23 14:14:57;;;;;;;3.15;1.50;;;;;;;;;;5041518;28;20052;-73
2022/10/23 14:17:24;;;;;;;3.90;1.52;;;;;;;;;;5047155;28;20117;-72
2022/10/23 14:19:50;;;;;;;7.35;1.75;;;;;;;;;;5041404;28;20049;-67
2022/10/23 14:22:17;;;;;;;3.97;1.40;;;;;;;;;;5030845;28;20056;-71
2022/10/23 14:24:43;;;;;;;5.03;1.70;;;;;;;;;;5028006;28;20060;-68
2022/10/23 14:27:11;;;;;;;4.07;1.63;;;;;;;;;;5026258;28;20059;-67
2022/10/23 14:29:37;;;;;;;5.72;1.70;;;;;;;;;;5032116;28;20056;-64
2022/10/23 14:32:05;;;;;;;4.20;1.42;;;;;;;;;;5059598;28;20063;-67
2022/10/23 14:34:32;;;;;;;3.13;1.40;;;;;;;;;;5070248;28;20056;-71
2022/10/23 14:36:59;;;;;;;3.67;1.40;;;;;;;;;;5048108;28;20065;-70
2022/10/23 14:39:25;;;;;;;5.40;1.45;;;;;;;;;;5047670;28;20080;-70
2022/10/23 14:41:52;;;;;;;3.90;1.60;;;;;;;;;;5045309;28;20056;-69
2022/10/23 14:44:19;;;;;;;5.00;1.65;;;;;;;;;;5068514;28;20056;-69
2022/10/23 14:46:45;;;;;;;8.07;1.83;;;;;;;;;;5042002;28;20069;-66
2022/10/23 14:49:13;;;;;;;4.35;1.40;;;;;;;;;;5063975;28;20114;-69
2022/10/23 14:51:40;;;;;;;4.38;1.60;;;;;;;;;;5061185;28;20116;-70
2022/10/23 14:54:07;;;;;;;4.97;1.60;;;;;;;;;;5042166;28;20059;-69
2022/10/23 14:56:36;;;;;;;3.67;1.85;;;;;;;;;;5021468;28;20057;-72